Main page
METAR-TAF:

METAR-TAF

Airports :

New Braunfels Regional Airport

New Braunfels, Texas, United States

latitude: 29-42-31N, longitude: 098-02-43W, elevation: 646 ft

Current weather observation

The report was made 56 minutes ago, at 19:51 UTC
Wind 5 mph from the Southeast
Temperature 93°F
Humidity 50%
Pressure 29.85 in. Hg
Visibility: 10 miles
Clear sky

METAR: KBAZ 151951Z 13004KT 10SM CLR 34/22 A2985 RMK AO2 SLP098 T03440222

Time: 15:47 (20:47 UTC)


TAF: missing

Weather observations and forecasts of more than 4000 airports (METAR and TAF reports).

The available stations are represented by yellow and red dots on the map.

Hover mouse over dot to see the name of the station.

Then click to see weather observations and forecasts.

To change the map : click on the green buttons with a black cross to zoom in, on the green button with a dash to zoom out, or on the green arrows for adjacent maps.


METAR-TAF: